createdAt,value
2023-03-27T00:01:21.971Z,95406.09
2023-03-27T00:03:50.317Z,95415.44
2023-03-27T00:06:18.748Z,95406.09
2023-03-27T00:08:49.102Z,95412.91
2023-03-27T00:11:16.907Z,95409.50
2023-03-27T00:13:49.650Z,95409.47
2023-03-27T00:16:19.269Z,95411.19
2023-03-27T00:18:45.865Z,95408.63
2023-03-27T00:21:12.913Z,95411.19
2023-03-27T00:23:40.335Z,95406.94
2023-03-27T00:26:07.067Z,95407.78
2023-03-27T00:28:34.126Z,95412.03
2023-03-27T00:31:00.764Z,95397.59
2023-03-27T00:33:27.618Z,95407.78
2023-03-27T00:35:54.256Z,95412.88
2023-03-27T00:38:21.353Z,95399.31
2023-03-27T00:40:50.755Z,95398.47
2023-03-27T00:43:23.318Z,95397.63
2023-03-27T00:45:52.640Z,95396.75
2023-03-27T00:48:20.652Z,95400.16
2023-03-27T00:50:48.846Z,95392.53
2023-03-27T00:53:22.453Z,95395.91
2023-03-27T00:55:52.702Z,95389.16
2023-03-27T00:58:25.971Z,95378.97
2023-03-27T01:00:55.502Z,95387.44
2023-03-27T01:03:26.180Z,95390.00
2023-03-27T01:05:54.494Z,95392.50
2023-03-27T01:08:21.815Z,95389.13
2023-03-27T01:10:57.597Z,95388.28
2023-03-27T01:13:46.013Z,95385.75
2023-03-27T01:16:28.454Z,95395.06
2023-03-27T01:19:13.169Z,95397.59
2023-03-27T01:21:52.070Z,95400.16
2023-03-27T01:24:38.441Z,95388.28
2023-03-27T01:27:37.987Z,95394.22
2023-03-27T01:30:40.032Z,95393.38
2023-03-27T01:33:26.487Z,95384.94
2023-03-27T01:36:11.337Z,95395.06
2023-03-27T01:39:04.581Z,95404.38
2023-03-27T01:41:49.741Z,95405.22
2023-03-27T01:44:22.036Z,95406.06
2023-03-27T01:46:55.424Z,95395.06
2023-03-27T01:49:31.174Z,95408.63
2023-03-27T01:52:06.730Z,95415.41
2023-03-27T01:54:37.771Z,95412.00
2023-03-27T01:57:29.076Z,95404.41
2023-03-27T02:00:17.499Z,95411.16
2023-03-27T02:03:15.367Z,95409.47
2023-03-27T02:05:51.332Z,95414.53
2023-03-27T02:08:27.331Z,95414.53
2023-03-27T02:10:58.261Z,95422.13
2023-03-27T02:13:47.893Z,95421.31
2023-03-27T02:16:19.444Z,95423.00
2023-03-27T02:18:58.160Z,95420.47
2023-03-27T02:21:25.181Z,95424.69
2023-03-27T02:23:53.146Z,95427.22
2023-03-27T02:26:19.704Z,95436.56
2023-03-27T02:29:01.687Z,95431.44
2023-03-27T02:32:19.185Z,95440.75
2023-03-27T02:34:57.049Z,95439.91
2023-03-27T02:37:45.604Z,95440.75
2023-03-27T02:40:39.731Z,95446.69
2023-03-27T02:43:17.151Z,95438.22
2023-03-27T02:45:59.512Z,95439.06
2023-03-27T02:48:40.955Z,95434.81
2023-03-27T02:51:13.343Z,95440.75
2023-03-27T02:53:51.020Z,95442.44
2023-03-27T02:56:20.601Z,95446.69
2023-03-27T02:58:53.151Z,95444.13
2023-03-27T03:01:22.273Z,95441.59
2023-03-27T03:04:01.410Z,95440.75
2023-03-27T03:06:30.829Z,95446.66
2023-03-27T03:09:05.674Z,95455.16
2023-03-27T03:11:38.337Z,95450.03
2023-03-27T03:14:05.226Z,95460.22
2023-03-27T03:16:31.805Z,95450.06
2023-03-27T03:18:58.298Z,95451.78
2023-03-27T03:21:25.409Z,95469.56
2023-03-27T03:23:57.510Z,95469.50
2023-03-27T03:26:25.048Z,95480.53
2023-03-27T03:29:00.882Z,95472.00
2023-03-27T03:31:43.098Z,95487.25
2023-03-27T03:34:16.229Z,95491.50
2023-03-27T03:36:45.005Z,95494.00
2023-03-27T03:39:12.968Z,95507.53
2023-03-27T03:41:39.641Z,95497.31
2023-03-27T03:44:06.339Z,95520.94
2023-03-27T03:46:33.178Z,95528.38
2023-03-27T03:49:00.951Z,95523.25
2023-03-27T03:51:28.354Z,95534.19
2023-03-27T03:53:54.896Z,95539.19
2023-03-27T03:56:21.454Z,95550.13
2023-03-27T03:58:47.960Z,95567.03
2023-03-27T04:01:14.330Z,95573.69
2023-03-27T04:03:41.583Z,95580.47
2023-03-27T04:06:08.248Z,95588.88
2023-03-27T04:08:35.211Z,95589.66
2023-03-27T04:11:01.842Z,95609.09
2023-03-27T04:13:28.251Z,95617.50
2023-03-27T04:15:55.436Z,95615.78
2023-03-27T04:18:24.653Z,95625.06
2023-03-27T04:20:51.415Z,95635.13
2023-03-27T04:23:21.209Z,95645.09
2023-03-27T04:25:47.703Z,95637.44
2023-03-27T04:28:17.495Z,95653.38
2023-03-27T04:30:45.301Z,95666.78
2023-03-27T04:33:18.483Z,95673.50
2023-03-27T04:35:46.471Z,95672.53
2023-03-27T04:38:37.051Z,95687.63
2023-03-27T04:41:04.433Z,95692.63
2023-03-27T04:43:31.014Z,95706.78
2023-03-27T04:45:57.544Z,95726.13
2023-03-27T04:48:23.939Z,95728.56
2023-03-27T04:50:50.847Z,95741.94
2023-03-27T04:53:20.539Z,95746.00
2023-03-27T04:55:51.020Z,95752.69
2023-03-27T04:58:20.879Z,95765.31
2023-03-27T05:00:56.124Z,95771.09
2023-03-27T05:03:27.690Z,95765.03
2023-03-27T05:05:58.206Z,95788.75
2023-03-27T05:08:24.761Z,95792.00
2023-03-27T05:10:52.939Z,95790.22
2023-03-27T05:13:19.540Z,95811.53
2023-03-27T05:15:46.022Z,95799.47
2023-03-27T05:18:12.660Z,95828.34
2023-03-27T05:20:39.171Z,95825.81
2023-03-27T05:23:05.670Z,95836.81
2023-03-27T05:25:36.275Z,95843.59
2023-03-27T05:28:02.932Z,95849.38
2023-03-27T05:30:29.910Z,95840.13
2023-03-27T05:32:59.196Z,95851.88
2023-03-27T05:35:28.199Z,95859.44
2023-03-27T05:37:56.111Z,95869.50
2023-03-27T05:40:25.477Z,95878.69
2023-03-27T05:42:56.503Z,95883.78
2023-03-27T05:45:26.143Z,95893.97
2023-03-27T05:47:56.605Z,95902.38
2023-03-27T05:50:26.465Z,95902.41
2023-03-27T05:53:04.221Z,95918.41
2023-03-27T05:55:31.925Z,95923.41
2023-03-27T05:57:58.392Z,95919.97
2023-03-27T06:00:25.853Z,95941.91
2023-03-27T06:02:57.381Z,95943.72
2023-03-27T06:05:26.731Z,95952.03
2023-03-27T06:07:53.516Z,95961.19
2023-03-27T06:10:20.548Z,95963.72
2023-03-27T06:12:48.958Z,95964.59
2023-03-27T06:15:15.812Z,95973.84
2023-03-27T06:17:43.802Z,95973.06
2023-03-27T06:20:12.595Z,95978.94
2023-03-27T06:22:46.501Z,95985.75
2023-03-27T06:25:13.890Z,95992.41
2023-03-27T06:27:45.385Z,96003.47
2023-03-27T06:30:13.193Z,96007.72
2023-03-27T06:32:47.605Z,96018.75
2023-03-27T06:35:14.621Z,96032.09
2023-03-27T06:37:41.989Z,96037.13
2023-03-27T06:40:10.119Z,96032.59
2023-03-27T06:42:37.030Z,96057.97
2023-03-27T06:45:05.187Z,96059.28
2023-03-27T06:47:34.585Z,96083.66
2023-03-27T06:50:06.590Z,96079.97
2023-03-27T06:52:33.048Z,96093.41
2023-03-27T06:54:59.410Z,96104.25
2023-03-27T06:57:25.892Z,96102.44
2023-03-27T06:59:53.364Z,96119.97
2023-03-27T07:02:19.743Z,96129.09
2023-03-27T07:04:57.838Z,96138.22
2023-03-27T07:07:30.824Z,96142.44
2023-03-27T07:09:57.264Z,96148.16
2023-03-27T07:12:23.851Z,96150.56
2023-03-27T07:14:50.215Z,96157.28
2023-03-27T07:17:16.710Z,96171.81
2023-03-27T07:19:43.089Z,96175.22
2023-03-27T07:22:09.671Z,96183.03
2023-03-27T07:24:36.415Z,96187.50
2023-03-27T07:27:02.996Z,96185.94
2023-03-27T07:29:29.361Z,96197.09
2023-03-27T07:31:58.552Z,96202.44
2023-03-27T07:34:27.077Z,96204.47
2023-03-27T07:36:53.525Z,96211.53
2023-03-27T07:39:20.390Z,96215.88
2023-03-27T07:41:46.833Z,96216.03
2023-03-27T07:44:13.218Z,96216.09
2023-03-27T07:46:39.587Z,96223.16
2023-03-27T07:49:06.331Z,96224.91
2023-03-27T07:51:33.059Z,96232.56
2023-03-27T07:54:04.163Z,96238.50
2023-03-27T07:56:33.383Z,96245.44
2023-03-27T07:59:00.292Z,96262.50
2023-03-27T08:01:27.562Z,96255.72
2023-03-27T08:03:54.311Z,96265.16
2023-03-27T08:06:20.945Z,96269.59
2023-03-27T08:08:47.408Z,96272.28
2023-03-27T08:11:27.211Z,96272.38
2023-03-27T08:13:56.394Z,96282.75
2023-03-27T08:16:27.565Z,96278.50
2023-03-27T08:18:54.517Z,96285.44
2023-03-27T08:21:21.095Z,96288.78
2023-03-27T08:23:47.649Z,96288.72
2023-03-27T08:26:14.466Z,96295.31
2023-03-27T08:28:42.404Z,96300.47
2023-03-27T08:31:12.763Z,96303.06
2023-03-27T08:33:41.471Z,96309.06
2023-03-27T08:36:10.589Z,96318.19
2023-03-27T08:38:39.448Z,96313.03
2023-03-27T08:41:06.699Z,96334.31
2023-03-27T08:43:42.807Z,96340.25
2023-03-27T08:46:19.762Z,96322.50
2023-03-27T08:48:58.226Z,96342.53
2023-03-27T08:51:47.074Z,96361.22
2023-03-27T08:54:23.477Z,96369.56
2023-03-27T08:56:50.299Z,96362.66
2023-03-27T08:59:22.757Z,96371.25
2023-03-27T09:02:08.995Z,96369.78
2023-03-27T09:05:01.819Z,96372.94
2023-03-27T09:08:05.124Z,96380.75
2023-03-27T09:10:51.940Z,96382.84
2023-03-27T09:14:01.873Z,96384.81
2023-03-27T09:16:34.170Z,96392.56
2023-03-27T09:19:12.865Z,96397.56
2023-03-27T09:21:46.603Z,96403.66
2023-03-27T09:24:35.189Z,96401.00
2023-03-27T09:27:17.568Z,96413.84
2023-03-27T09:29:45.067Z,96409.31
2023-03-27T09:32:15.589Z,96417.25
2023-03-27T09:34:42.292Z,96418.78
2023-03-27T09:37:17.423Z,96419.81
2023-03-27T09:39:48.179Z,96420.00
2023-03-27T09:42:26.334Z,96426.16
2023-03-27T09:44:59.342Z,96433.03
2023-03-27T09:47:55.317Z,96425.88
2023-03-27T09:50:34.933Z,96441.44
2023-03-27T09:53:09.246Z,96453.44
2023-03-27T09:55:58.384Z,96466.50
2023-03-27T09:58:32.969Z,96454.06
2023-03-27T10:01:07.374Z,96458.66
2023-03-27T10:03:40.353Z,96459.63
2023-03-27T10:06:13.613Z,96459.22
2023-03-27T10:08:46.928Z,96472.19
2023-03-27T10:11:24.013Z,96475.94
2023-03-27T10:13:51.945Z,96485.84
2023-03-27T10:16:21.479Z,96498.41
2023-03-27T10:18:51.197Z,96502.78
2023-03-27T10:21:40.355Z,96500.97
2023-03-27T10:24:21.090Z,96496.47
2023-03-27T10:26:49.005Z,96503.56
2023-03-27T10:29:27.520Z,96525.91
2023-03-27T10:31:56.758Z,96523.75
2023-03-27T10:34:34.155Z,96523.09
2023-03-27T10:37:03.048Z,96515.34
2023-03-27T10:39:34.141Z,96518.78
2023-03-27T10:42:09.212Z,96518.91
2023-03-27T10:44:37.684Z,96534.63
2023-03-27T10:47:14.923Z,96525.75
2023-03-27T10:49:47.198Z,96541.53
2023-03-27T10:52:31.644Z,96542.16
2023-03-27T10:55:00.688Z,96546.38
2023-03-27T10:57:34.526Z,96548.06
2023-03-27T11:00:21.056Z,96548.00
2023-03-27T11:02:58.149Z,96542.94
2023-03-27T11:05:30.565Z,96556.63
2023-03-27T11:08:05.831Z,96561.44
2023-03-27T11:10:44.109Z,96566.03
2023-03-27T11:13:18.428Z,96573.69
2023-03-27T11:15:54.407Z,96595.72
2023-03-27T11:18:29.710Z,96590.91
2023-03-27T11:21:12.785Z,96590.94
2023-03-27T11:23:48.322Z,96593.44
2023-03-27T11:26:18.124Z,96589.63
2023-03-27T11:29:09.255Z,96587.69
2023-03-27T11:31:40.133Z,96581.78
2023-03-27T11:34:28.862Z,96586.41
2023-03-27T11:37:07.526Z,96588.97
2023-03-27T11:40:09.385Z,96606.06
2023-03-27T11:42:42.402Z,96606.06
2023-03-27T11:45:14.417Z,96613.91
2023-03-27T11:48:01.247Z,96617.31
2023-03-27T11:50:44.151Z,96623.75
2023-03-27T11:53:22.797Z,96622.50
2023-03-27T11:56:08.788Z,96633.94
2023-03-27T11:58:46.445Z,96635.53
2023-03-27T12:01:27.751Z,96622.72
2023-03-27T12:04:16.973Z,96621.00
2023-03-27T12:07:04.230Z,96622.44
2023-03-27T12:09:52.454Z,96627.31
2023-03-27T12:12:37.878Z,96621.38
2023-03-27T12:15:23.160Z,96626.81
2023-03-27T12:18:09.181Z,96631.19
2023-03-27T12:20:58.784Z,96630.50
2023-03-27T12:23:32.444Z,96636.63
2023-03-27T12:26:04.526Z,96640.78
2023-03-27T12:29:00.619Z,96636.94
2023-03-27T12:31:27.068Z,96637.91
2023-03-27T12:34:01.117Z,96638.84
2023-03-27T12:36:33.557Z,96634.28
2023-03-27T12:39:00.452Z,96630.53
2023-03-27T12:41:33.543Z,96638.47
2023-03-27T12:44:03.510Z,96637.81
2023-03-27T12:46:36.520Z,96640.78
2023-03-27T12:49:23.851Z,96638.25
2023-03-27T12:51:55.063Z,96637.69
2023-03-27T12:54:27.841Z,96637.03
2023-03-27T12:57:05.931Z,96636.53
2023-03-27T12:59:40.015Z,96628.34
2023-03-27T13:02:16.074Z,96631.81
2023-03-27T13:05:03.157Z,96623.28
2023-03-27T13:07:59.040Z,96636.06
2023-03-27T13:10:40.238Z,96640.03
2023-03-27T13:13:15.742Z,96643.38
2023-03-27T13:16:19.608Z,96655.34
2023-03-27T13:18:57.912Z,96659.56
2023-03-27T13:21:51.845Z,96669.00
2023-03-27T13:24:18.571Z,96661.75
2023-03-27T13:27:21.862Z,96645.16
2023-03-27T13:29:50.151Z,96655.00
2023-03-27T13:32:39.855Z,96653.88
2023-03-27T13:35:21.635Z,96660.75
2023-03-27T13:37:51.686Z,96656.28
2023-03-27T13:40:47.504Z,96670.09
2023-03-27T13:43:23.485Z,96677.19
2023-03-27T13:45:54.290Z,96685.16
2023-03-27T13:48:42.918Z,96702.19
2023-03-27T13:51:34.666Z,96700.59
2023-03-27T13:54:39.950Z,96701.94
2023-03-27T13:57:22.319Z,96697.00
2023-03-27T14:00:16.675Z,96698.41
2023-03-27T14:03:05.023Z,96692.13
2023-03-27T14:05:40.555Z,96692.81
2023-03-27T14:08:37.749Z,96711.94
2023-03-27T14:11:23.736Z,96695.97
2023-03-27T14:14:12.339Z,96697.19
2023-03-27T14:16:45.201Z,96693.16
2023-03-27T14:19:38.992Z,96693.66
2023-03-27T14:22:14.732Z,96698.00
2023-03-27T14:24:50.368Z,96700.09
2023-03-27T14:27:19.477Z,96712.19
2023-03-27T14:29:49.379Z,96697.13
2023-03-27T14:32:17.995Z,96703.59
2023-03-27T14:34:54.008Z,96716.63
2023-03-27T14:37:29.139Z,96727.41
2023-03-27T14:39:57.740Z,96734.88
2023-03-27T14:42:32.603Z,96751.09
2023-03-27T14:45:22.054Z,96777.38
2023-03-27T14:48:17.363Z,96790.25
2023-03-27T14:50:46.272Z,96783.81
2023-03-27T14:53:18.205Z,96766.50
2023-03-27T14:55:44.843Z,96766.41
2023-03-27T14:58:19.232Z,96762.75
2023-03-27T15:00:51.349Z,96750.16
2023-03-27T15:03:21.648Z,96754.59
2023-03-27T15:05:54.168Z,96749.03
2023-03-27T15:08:22.264Z,96751.97
2023-03-27T15:10:53.685Z,96751.81
2023-03-27T15:13:23.828Z,96760.66
2023-03-27T15:15:53.577Z,96765.13
2023-03-27T15:18:31.245Z,96769.97
2023-03-27T15:21:05.463Z,96788.34
2023-03-27T15:23:38.887Z,96779.44
2023-03-27T15:26:14.787Z,96786.66
2023-03-27T15:29:32.420Z,96791.44
2023-03-27T15:32:08.656Z,96793.47
2023-03-27T15:34:46.025Z,96805.00
2023-03-27T15:37:23.529Z,96798.53
2023-03-27T15:40:34.323Z,96806.38
2023-03-27T15:43:02.311Z,96802.75
2023-03-27T15:45:39.864Z,96812.63
2023-03-27T15:48:23.853Z,96809.56
2023-03-27T15:50:58.310Z,96818.38
2023-03-27T15:53:39.557Z,96819.88
2023-03-27T15:56:13.626Z,96833.09
2023-03-27T15:58:59.487Z,96833.19
2023-03-27T16:01:32.104Z,96823.88
2023-03-27T16:04:19.445Z,96831.03
2023-03-27T16:06:52.342Z,96824.44
2023-03-27T16:09:32.766Z,96833.41
2023-03-27T16:12:00.143Z,96830.22
2023-03-27T16:14:40.578Z,96842.69
2023-03-27T16:17:10.189Z,96840.06
2023-03-27T16:19:48.224Z,96843.97
2023-03-27T16:22:22.449Z,96843.97
2023-03-27T16:24:49.307Z,96840.16
2023-03-27T16:27:17.033Z,96837.28
2023-03-27T16:29:43.489Z,96849.09
2023-03-27T16:32:13.181Z,96855.22
2023-03-27T16:34:40.554Z,96863.63
2023-03-27T16:37:07.600Z,96863.53
2023-03-27T16:39:34.365Z,96865.97
2023-03-27T16:42:00.886Z,96862.41
2023-03-27T16:44:27.358Z,96870.16
2023-03-27T16:46:53.911Z,96862.97
2023-03-27T16:49:20.402Z,96865.34
2023-03-27T16:51:46.748Z,96873.75
2023-03-27T16:54:13.075Z,96870.22
2023-03-27T16:56:39.480Z,96875.09
2023-03-27T16:59:05.897Z,96891.28
2023-03-27T17:01:32.363Z,96882.69
2023-03-27T17:03:58.843Z,96900.38
2023-03-27T17:06:25.278Z,96894.53
2023-03-27T17:08:55.247Z,96896.75
2023-03-27T17:11:22.977Z,96903.66
2023-03-27T17:13:50.257Z,96895.69
2023-03-27T17:16:16.864Z,96914.09
2023-03-27T17:18:43.464Z,96907.41
2023-03-27T17:21:13.251Z,96905.75
2023-03-27T17:23:42.062Z,96914.25
2023-03-27T17:26:12.998Z,96923.75
2023-03-27T17:28:42.884Z,96916.28
2023-03-27T17:31:09.282Z,96932.56
2023-03-27T17:33:36.387Z,96923.56
2023-03-27T17:36:11.377Z,96925.22
2023-03-27T17:38:38.210Z,96921.66
2023-03-27T17:41:07.249Z,96939.28
2023-03-27T17:43:33.891Z,96928.31
2023-03-27T17:46:00.628Z,96936.81
2023-03-27T17:48:27.518Z,96937.38
2023-03-27T17:51:07.480Z,96943.94
2023-03-27T17:53:37.000Z,96949.94
2023-03-27T17:56:04.025Z,96945.34
2023-03-27T17:58:31.253Z,96951.84
2023-03-27T18:00:57.616Z,96949.13
2023-03-27T18:03:24.181Z,96957.50
2023-03-27T18:05:50.985Z,96955.91
2023-03-27T18:08:19.913Z,96956.72
2023-03-27T18:10:50.248Z,96955.06
2023-03-27T18:13:20.455Z,96954.09
2023-03-27T18:15:46.921Z,96962.31
2023-03-27T18:18:13.389Z,96962.75
2023-03-27T18:20:40.277Z,96975.41
2023-03-27T18:23:06.764Z,96973.00
2023-03-27T18:25:33.383Z,96978.59
2023-03-27T18:27:59.845Z,96994.75
2023-03-27T18:30:26.365Z,96984.38
2023-03-27T18:32:52.770Z,97003.00
2023-03-27T18:35:20.583Z,96999.19
2023-03-27T18:37:47.140Z,97005.09
2023-03-27T18:40:15.998Z,97004.38
2023-03-27T18:42:45.952Z,96999.69
2023-03-27T18:45:15.113Z,97007.44
2023-03-27T18:47:42.929Z,97006.69
2023-03-27T18:50:11.900Z,96998.84
2023-03-27T18:52:38.776Z,96999.53
2023-03-27T18:55:07.524Z,97006.31
2023-03-27T18:57:34.493Z,97000.56
2023-03-27T19:00:01.326Z,97013.41
2023-03-27T19:02:28.825Z,97004.75
2023-03-27T19:04:55.524Z,97004.66
2023-03-27T19:07:21.942Z,96997.59
2023-03-27T19:09:48.428Z,97012.91
2023-03-27T19:12:14.791Z,97011.09
2023-03-27T19:14:41.571Z,97006.78
2023-03-27T19:17:08.108Z,97008.66
2023-03-27T19:19:34.575Z,97015.22
2023-03-27T19:22:01.094Z,97006.78
2023-03-27T19:24:27.538Z,97000.81
2023-03-27T19:26:53.913Z,97005.00
2023-03-27T19:29:20.349Z,97004.13
2023-03-27T19:31:46.787Z,97016.84
2023-03-27T19:34:13.269Z,97020.94
2023-03-27T19:36:39.757Z,97014.91
2023-03-27T19:39:06.992Z,97021.81
2023-03-27T19:41:33.425Z,97023.34
2023-03-27T19:44:00.497Z,97035.03
2023-03-27T19:48:55.746Z,97045.25
2023-03-27T19:51:22.796Z,97047.00
2023-03-27T19:53:49.208Z,97046.88
2023-03-27T19:56:16.068Z,97058.09
2023-03-27T19:58:42.713Z,97058.16
2023-03-27T20:01:09.430Z,97058.16
2023-03-27T20:03:38.293Z,97057.69
2023-03-27T20:06:11.128Z,97052.72
2023-03-27T20:08:40.946Z,97050.72
2023-03-27T20:11:07.916Z,97047.19
2023-03-27T20:13:42.289Z,97046.78
2023-03-27T20:16:14.754Z,97056.19
2023-03-27T20:18:41.782Z,97060.97
2023-03-27T20:21:13.685Z,97057.28
2023-03-27T20:23:41.861Z,97058.69
2023-03-27T20:26:09.079Z,97059.19
2023-03-27T20:28:36.148Z,97060.03
2023-03-27T20:31:06.515Z,97067.63
2023-03-27T20:33:33.059Z,97073.72
2023-03-27T20:36:00.070Z,97073.44
2023-03-27T20:38:31.359Z,97075.28
2023-03-27T20:40:58.460Z,97069.84
2023-03-27T20:43:26.957Z,97078.13
2023-03-27T20:45:54.968Z,97085.78
2023-03-27T20:48:21.965Z,97080.44
2023-03-27T20:50:55.305Z,97082.31
2023-03-27T20:53:30.350Z,97080.56
2023-03-27T20:56:03.502Z,97086.56
2023-03-27T20:58:33.124Z,97088.31
2023-03-27T21:01:04.818Z,97078.00
2023-03-27T21:03:36.666Z,97086.41
2023-03-27T21:06:05.601Z,97090.75
2023-03-27T21:08:32.489Z,97083.25
2023-03-27T21:10:58.917Z,97097.88
2023-03-27T21:13:25.488Z,97092.75
2023-03-27T21:15:52.005Z,97098.81
2023-03-27T21:18:18.681Z,97096.44
2023-03-27T21:20:45.365Z,97095.75
2023-03-27T21:23:11.751Z,97093.81
2023-03-27T21:25:38.618Z,97107.31
2023-03-27T21:28:06.072Z,97096.19
2023-03-27T21:30:47.294Z,97098.44
2023-03-27T21:33:16.452Z,97098.44
2023-03-27T21:35:46.751Z,97110.00
2023-03-27T21:38:14.092Z,97103.25
2023-03-27T21:40:41.183Z,97108.88
2023-03-27T21:43:08.807Z,97108.78
2023-03-27T21:45:36.413Z,97115.63
2023-03-27T21:48:02.974Z,97116.44
2023-03-27T21:50:29.800Z,97111.41
2023-03-27T21:52:56.645Z,97112.81
2023-03-27T21:55:23.100Z,97118.59
2023-03-27T21:57:49.494Z,97122.91
2023-03-27T22:00:16.180Z,97108.44
2023-03-27T22:02:42.703Z,97113.28
2023-03-27T22:05:09.628Z,97120.06
2023-03-27T22:07:36.604Z,97117.16
2023-03-27T22:10:06.253Z,97126.25
2023-03-27T22:12:36.872Z,97117.59
2023-03-27T22:15:05.876Z,97125.00
2023-03-27T22:17:32.531Z,97122.97
2023-03-27T22:19:59.195Z,97120.19
2023-03-27T22:22:25.641Z,97136.25
2023-03-27T22:24:52.126Z,97134.94
2023-03-27T22:27:18.716Z,97129.69
2023-03-27T22:29:45.101Z,97131.34
2023-03-27T22:32:11.558Z,97129.13
2023-03-27T22:34:37.978Z,97135.09
2023-03-27T22:37:04.477Z,97133.22
2023-03-27T22:39:31.388Z,97131.47
2023-03-27T22:41:58.047Z,97143.78
2023-03-27T22:44:24.665Z,97148.91
2023-03-27T22:46:52.887Z,97152.72
2023-03-27T22:49:19.468Z,97150.13
2023-03-27T22:51:45.825Z,97160.22
2023-03-27T22:54:12.366Z,97174.38
2023-03-27T22:56:38.869Z,97167.91
2023-03-27T22:59:06.044Z,97167.03
2023-03-27T23:01:32.633Z,97172.16
2023-03-27T23:03:59.174Z,97177.84
2023-03-27T23:06:25.639Z,97166.81
2023-03-27T23:08:52.141Z,97178.94
2023-03-27T23:11:19.600Z,97172.25
2023-03-27T23:13:46.749Z,97168.38
2023-03-27T23:16:13.289Z,97173.69
2023-03-27T23:18:40.161Z,97177.13
2023-03-27T23:21:09.533Z,97180.47
2023-03-27T23:23:38.059Z,97187.75
2023-03-27T23:26:06.109Z,97191.00
2023-03-27T23:28:35.438Z,97190.94
2023-03-27T23:31:05.772Z,97191.56
2023-03-27T23:33:38.421Z,97189.97
2023-03-27T23:36:08.446Z,97193.44
2023-03-27T23:38:35.815Z,97195.81
2023-03-27T23:41:02.953Z,97200.88
2023-03-27T23:43:30.661Z,97190.53
2023-03-27T23:45:59.458Z,97202.13
2023-03-27T23:48:30.292Z,97203.69
2023-03-27T23:50:57.511Z,97212.91
2023-03-27T23:53:26.166Z,97206.22
2023-03-27T23:55:53.467Z,97217.09
2023-03-27T23:58:20.223Z,97217.00
